Time;durP1;ratioP1;P1;durP2;ratioP2;P2;SDS_P1;SDS_P2;PMS_P1;PMS_P2;Temp;Humidity;BMP_temperature;BMP_pressure;BME280_temperature;BME280_humidity;BME280_pressure;Samples;Min_cycle;Max_cycle;Signal;HPM_P1;HPM_P2
2022/04/08 00:00:00;;;;;;;11.4;4.3;;;;;;;6.2;100.0;99470;;;;
2022/04/08 00:01:01;;;;;;;11.4;4.3;;;;;;;6.2;100.0;99460;;;;
2022/04/08 00:02:00;;;;;;;11.4;4.3;;;;;;;6.2;100.0;99460;;;;
2022/04/08 00:03:00;;;;;;;11.4;4.3;;;;;;;6.1;100.0;99480;;;;
2022/04/08 00:04:00;;;;;;;11.4;4.3;;;;;;;6.1;100.0;99480;;;;
2022/04/08 00:05:00;;;;;;;11.4;4.3;;;;;;;6.2;100.0;99480;;;;
2022/04/08 00:06:00;;;;;;;11.4;4.3;;;;;;;6.2;100.0;99480;;;;
2022/04/08 00:07:00;;;;;;;11.4;4.3;;;;;;;6.1;100.0;99480;;;;
2022/04/08 00:08:00;;;;;;;11.4;4.3;;;;;;;6.1;100.0;99480;;;;
2022/04/08 00:09:00;;;;;;;11.4;4.3;;;;;;;6.0;100.0;99480;;;;
2022/04/08 00:10:00;;;;;;;11.4;4.3;;;;;;;6.0;100.0;99480;;;;
2022/04/08 00:11:00;;;;;;;11.4;4.3;;;;;;;6.0;100.0;99480;;;;
2022/04/08 00:12:00;;;;;;;11.4;4.3;;;;;;;6.0;100.0;99480;;;;
2022/04/08 00:13:00;;;;;;;11.4;4.3;;;;;;;6.0;100.0;99490;;;;
2022/04/08 00:14:00;;;;;;;11.4;4.3;;;;;;;6.0;100.0;99490;;;;
2022/04/08 00:15:00;;;;;;;11.4;4.3;;;;;;;6.0;100.0;99490;;;;
2022/04/08 00:16:00;;;;;;;11.4;4.3;;;;;;;6.0;100.0;99490;;;;
2022/04/08 00:17:02;;;;;;;11.4;4.3;;;;;;;5.9;100.0;99490;;;;
2022/04/08 00:18:00;;;;;;;11.4;4.3;;;;;;;5.9;100.0;99490;;;;
2022/04/08 00:19:00;;;;;;;11.4;4.3;;;;;;;5.9;100.0;99490;;;;
2022/04/08 00:20:00;;;;;;;7.6;3.9;;;;;;;5.9;100.0;99490;;;;
2022/04/08 00:21:01;;;;;;;7.6;3.9;;;;;;;6.0;100.0;99500;;;;
2022/04/08 00:22:00;;;;;;;7.6;3.9;;;;;;;6.0;100.0;99500;;;;
2022/04/08 00:23:01;;;;;;;7.6;3.9;;;;;;;6.0;100.0;99510;;;;
2022/04/08 00:24:00;;;;;;;7.6;3.9;;;;;;;6.0;100.0;99510;;;;
2022/04/08 00:25:00;;;;;;;7.6;3.9;;;;;;;5.9;100.0;99510;;;;
2022/04/08 00:26:00;;;;;;;7.6;3.9;;;;;;;5.9;100.0;99510;;;;
2022/04/08 00:27:00;;;;;;;7.6;3.9;;;;;;;5.9;100.0;99510;;;;
2022/04/08 00:28:00;;;;;;;7.6;3.9;;;;;;;5.9;100.0;99510;;;;
2022/04/08 00:29:00;;;;;;;7.6;3.9;;;;;;;5.9;100.0;99520;;;;
2022/04/08 00:30:00;;;;;;;7.6;3.9;;;;;;;5.9;100.0;99520;;;;
2022/04/08 00:31:01;;;;;;;7.6;3.9;;;;;;;5.9;100.0;99510;;;;
2022/04/08 00:32:00;;;;;;;7.6;3.9;;;;;;;5.9;100.0;99510;;;;
2022/04/08 00:33:00;;;;;;;7.6;3.9;;;;;;;5.8;100.0;99530;;;;
2022/04/08 00:34:00;;;;;;;7.6;3.9;;;;;;;5.8;100.0;99530;;;;
2022/04/08 00:35:00;;;;;;;7.6;3.9;;;;;;;5.8;100.0;99530;;;;
2022/04/08 00:36:00;;;;;;;7.6;3.9;;;;;;;5.8;100.0;99530;;;;
2022/04/08 00:37:00;;;;;;;7.6;3.9;;;;;;;5.8;100.0;99530;;;;
2022/04/08 00:38:00;;;;;;;7.6;3.9;;;;;;;5.8;100.0;99530;;;;
2022/04/08 00:39:00;;;;;;;7.6;3.9;;;;;;;5.8;100.0;99530;;;;
2022/04/08 00:40:00;;;;;;;11.5;3.8;;;;;;;5.8;100.0;99530;;;;
2022/04/08 00:41:00;;;;;;;11.5;3.8;;;;;;;5.8;100.0;99540;;;;
2022/04/08 00:42:00;;;;;;;11.5;3.8;;;;;;;5.8;100.0;99540;;;;
2022/04/08 00:43:10;;;;;;;11.5;3.8;;;;;;;5.8;100.0;99540;;;;
2022/04/08 00:44:00;;;;;;;11.5;3.8;;;;;;;5.8;100.0;99540;;;;
2022/04/08 00:45:00;;;;;;;11.5;3.8;;;;;;;5.8;100.0;99530;;;;
2022/04/08 00:46:00;;;;;;;11.5;3.8;;;;;;;5.8;100.0;99530;;;;
2022/04/08 00:47:00;;;;;;;11.5;3.8;;;;;;;6.0;100.0;99540;;;;
2022/04/08 00:48:06;;;;;;;11.5;3.8;;;;;;;6.0;100.0;99540;;;;
2022/04/08 00:49:00;;;;;;;11.5;3.8;;;;;;;5.9;100.0;99550;;;;
2022/04/08 00:50:00;;;;;;;11.5;3.8;;;;;;;5.9;100.0;99550;;;;
2022/04/08 00:51:00;;;;;;;11.5;3.8;;;;;;;5.9;100.0;99540;;;;
2022/04/08 00:52:00;;;;;;;11.5;3.8;;;;;;;5.9;100.0;99540;;;;
2022/04/08 00:53:01;;;;;;;11.5;3.8;;;;;;;5.8;100.0;99550;;;;
2022/04/08 00:54:00;;;;;;;11.5;3.8;;;;;;;5.8;100.0;99550;;;;
2022/04/08 00:55:03;;;;;;;11.5;3.8;;;;;;;5.8;100.0;99540;;;;
2022/04/08 00:56:01;;;;;;;11.5;3.8;;;;;;;5.8;100.0;99540;;;;
2022/04/08 00:57:00;;;;;;;11.5;3.8;;;;;;;5.7;100.0;99550;;;;
2022/04/08 00:58:02;;;;;;;11.5;3.8;;;;;;;5.7;100.0;99550;;;;
2022/04/08 00:59:00;;;;;;;12.5;4.3;;;;;;;5.8;100.0;99560;;;;
2022/04/08 01:00:01;;;;;;;12.5;4.3;;;;;;;5.8;100.0;99560;;;;
2022/04/08 01:01:00;;;;;;;12.5;4.3;;;;;;;5.8;100.0;99560;;;;
2022/04/08 01:02:01;;;;;;;12.5;4.3;;;;;;;5.8;100.0;99560;;;;
2022/04/08 01:03:00;;;;;;;12.5;4.3;;;;;;;5.8;100.0;99560;;;;
2022/04/08 01:04:00;;;;;;;12.5;4.3;;;;;;;5.8;100.0;99560;;;;
2022/04/08 01:05:00;;;;;;;12.5;4.3;;;;;;;5.8;100.0;99560;;;;
2022/04/08 01:06:00;;;;;;;12.5;4.3;;;;;;;5.8;100.0;99560;;;;
2022/04/08 01:07:01;;;;;;;12.5;4.3;;;;;;;5.8;100.0;99570;;;;
2022/04/08 01:08:00;;;;;;;12.5;4.3;;;;;;;5.8;100.0;99570;;;;
2022/04/08 01:09:00;;;;;;;12.5;4.3;;;;;;;5.8;100.0;99560;;;;
2022/04/08 01:10:00;;;;;;;12.5;4.3;;;;;;;5.8;100.0;99560;;;;
2022/04/08 01:11:00;;;;;;;12.5;4.3;;;;;;;5.8;100.0;99570;;;;
2022/04/08 01:12:00;;;;;;;12.5;4.3;;;;;;;5.8;100.0;99570;;;;
2022/04/08 01:13:00;;;;;;;12.5;4.3;;;;;;;5.8;100.0;99570;;;;
2022/04/08 01:14:10;;;;;;;12.5;4.3;;;;;;;5.8;100.0;99570;;;;
2022/04/08 01:15:00;;;;;;;12.5;4.3;;;;;;;5.8;100.0;99570;;;;
2022/04/08 01:16:00;;;;;;;12.5;4.3;;;;;;;5.8;100.0;99570;;;;
2022/04/08 01:17:00;;;;;;;12.5;4.3;;;;;;;5.7;100.0;99580;;;;
2022/04/08 01:18:00;;;;;;;12.5;4.3;;;;;;;5.7;100.0;99580;;;;
2022/04/08 01:19:00;;;;;;;10.2;3.5;;;;;;;5.7;100.0;99590;;;;
2022/04/08 01:20:00;;;;;;;10.2;3.5;;;;;;;5.7;100.0;99590;;;;
2022/04/08 01:21:05;;;;;;;10.2;3.5;;;;;;;5.8;100.0;99590;;;;
2022/04/08 01:22:00;;;;;;;10.2;3.5;;;;;;;5.8;100.0;99590;;;;
2022/04/08 01:23:00;;;;;;;10.2;3.5;;;;;;;5.6;100.0;99580;;;;
2022/04/08 01:24:01;;;;;;;10.2;3.5;;;;;;;5.6;100.0;99580;;;;
2022/04/08 01:25:01;;;;;;;10.2;3.5;;;;;;;5.6;100.0;99590;;;;
2022/04/08 01:26:04;;;;;;;10.2;3.5;;;;;;;5.6;100.0;99590;;;;
2022/04/08 01:27:02;;;;;;;10.2;3.5;;;;;;;5.5;100.0;99600;;;;
2022/04/08 01:28:00;;;;;;;10.2;3.5;;;;;;;5.5;100.0;99600;;;;
2022/04/08 01:29:00;;;;;;;10.2;3.5;;;;;;;5.6;100.0;99600;;;;
2022/04/08 01:30:00;;;;;;;10.2;3.5;;;;;;;5.6;100.0;99600;;;;
2022/04/08 01:31:00;;;;;;;10.2;3.5;;;;;;;5.6;100.0;99600;;;;
2022/04/08 01:32:00;;;;;;;10.2;3.5;;;;;;;5.6;100.0;99600;;;;
2022/04/08 01:33:00;;;;;;;10.2;3.5;;;;;;;5.6;100.0;99600;;;;
2022/04/08 01:34:00;;;;;;;10.2;3.5;;;;;;;5.6;100.0;99600;;;;
2022/04/08 01:35:00;;;;;;;10.2;3.5;;;;;;;5.6;100.0;99600;;;;
2022/04/08 01:36:00;;;;;;;10.2;3.5;;;;;;;5.6;100.0;99600;;;;
2022/04/08 01:37:00;;;;;;;10.2;3.5;;;;;;;5.6;100.0;99600;;;;
2022/04/08 01:38:00;;;;;;;10.2;3.5;;;;;;;5.6;100.0;99600;;;;
2022/04/08 01:39:00;;;;;;;10.7;3.8;;;;;;;5.7;100.0;99610;;;;
2022/04/08 01:40:00;;;;;;;10.7;3.8;;;;;;;5.7;100.0;99610;;;;
2022/04/08 01:41:00;;;;;;;10.7;3.8;;;;;;;5.6;100.0;99610;;;;
2022/04/08 01:42:00;;;;;;;10.7;3.8;;;;;;;5.6;100.0;99610;;;;
2022/04/08 01:43:00;;;;;;;10.7;3.8;;;;;;;5.7;100.0;99610;;;;
2022/04/08 01:44:00;;;;;;;10.7;3.8;;;;;;;5.7;100.0;99610;;;;
2022/04/08 01:45:00;;;;;;;10.7;3.8;;;;;;;5.5;100.0;99620;;;;
2022/04/08 01:46:00;;;;;;;10.7;3.8;;;;;;;5.5;100.0;99620;;;;
2022/04/08 01:47:00;;;;;;;10.7;3.8;;;;;;;5.5;100.0;99620;;;;
2022/04/08 01:48:03;;;;;;;10.7;3.8;;;;;;;5.5;100.0;99620;;;;
2022/04/08 01:49:00;;;;;;;10.7;3.8;;;;;;;5.6;100.0;99620;;;;
2022/04/08 01:50:00;;;;;;;10.7;3.8;;;;;;;5.6;100.0;99620;;;;
2022/04/08 01:51:00;;;;;;;10.7;3.8;;;;;;;5.6;100.0;99620;;;;
2022/04/08 01:52:00;;;;;;;10.7;3.8;;;;;;;5.6;100.0;99620;;;;
2022/04/08 01:53:00;;;;;;;10.7;3.8;;;;;;;5.7;100.0;99630;;;;
2022/04/08 01:54:00;;;;;;;10.7;3.8;;;;;;;5.7;100.0;99630;;;;
2022/04/08 01:55:00;;;;;;;10.7;3.8;;;;;;;5.7;100.0;99630;;;;
2022/04/08 01:56:00;;;;;;;10.7;3.8;;;;;;;5.7;100.0;99630;;;;
2022/04/08 01:57:00;;;;;;;10.7;3.8;;;;;;;5.6;100.0;99620;;;;
2022/04/08 01:58:02;;;;;;;10.7;3.8;;;;;;;5.6;100.0;99620;;;;
2022/04/08 01:59:00;;;;;;;9.9;3.9;;;;;;;5.7;100.0;99620;;;;
2022/04/08 02:00:00;;;;;;;9.9;3.9;;;;;;;5.7;100.0;99620;;;;
2022/04/08 02:01:01;;;;;;;9.9;3.9;;;;;;;5.6;100.0;99620;;;;
2022/04/08 02:02:00;;;;;;;9.9;3.9;;;;;;;5.6;100.0;99620;;;;
2022/04/08 02:03:00;;;;;;;9.9;3.9;;;;;;;5.5;100.0;99620;;;;
2022/04/08 02:04:00;;;;;;;9.9;3.9;;;;;;;5.5;100.0;99620;;;;
2022/04/08 02:05:00;;;;;;;9.9;3.9;;;;;;;5.4;100.0;99620;;;;
2022/04/08 02:06:00;;;;;;;9.9;3.9;;;;;;;5.4;100.0;99620;;;;
2022/04/08 02:07:02;;;;;;;9.9;3.9;;;;;;;5.5;100.0;99630;;;;
2022/04/08 02:08:00;;;;;;;9.9;3.9;;;;;;;5.5;100.0;99630;;;;
2022/04/08 02:09:00;;;;;;;9.9;3.9;;;;;;;5.5;100.0;99640;;;;
2022/04/08 02:10:00;;;;;;;9.9;3.9;;;;;;;5.5;100.0;99640;;;;
2022/04/08 02:11:00;;;;;;;9.9;3.9;;;;;;;5.5;100.0;99640;;;;
2022/04/08 02:12:00;;;;;;;9.9;3.9;;;;;;;5.5;100.0;99640;;;;
2022/04/08 02:13:00;;;;;;;9.9;3.9;;;;;;;5.4;100.0;99630;;;;
2022/04/08 02:14:00;;;;;;;9.9;3.9;;;;;;;5.4;100.0;99630;;;;
2022/04/08 02:15:00;;;;;;;9.9;3.9;;;;;;;5.4;100.0;99640;;;;
2022/04/08 02:16:00;;;;;;;9.9;3.9;;;;;;;5.4;100.0;99640;;;;
2022/04/08 02:17:00;;;;;;;9.9;3.9;;;;;;;5.3;100.0;99640;;;;
2022/04/08 02:18:00;;;;;;;9.9;3.9;;;;;;;5.3;100.0;99640;;;;
2022/04/08 02:19:00;;;;;;;10.6;4.0;;;;;;;5.3;100.0;99640;;;;
2022/04/08 02:20:00;;;;;;;10.6;4.0;;;;;;;5.3;100.0;99640;;;;
2022/04/08 02:21:00;;;;;;;10.6;4.0;;;;;;;5.3;100.0;99640;;;;
2022/04/08 02:22:00;;;;;;;10.6;4.0;;;;;;;5.3;100.0;99640;;;;
2022/04/08 02:23:00;;;;;;;10.6;4.0;;;;;;;5.3;100.0;99640;;;;
2022/04/08 02:24:00;;;;;;;10.6;4.0;;;;;;;5.3;100.0;99640;;;;
2022/04/08 02:25:01;;;;;;;10.6;4.0;;;;;;;5.3;100.0;99640;;;;
2022/04/08 02:26:00;;;;;;;10.6;4.0;;;;;;;5.3;100.0;99640;;;;
2022/04/08 02:27:00;;;;;;;10.6;4.0;;;;;;;5.2;100.0;99640;;;;
2022/04/08 02:28:01;;;;;;;10.6;4.0;;;;;;;5.2;100.0;99640;;;;
2022/04/08 02:29:00;;;;;;;10.6;4.0;;;;;;;5.2;100.0;99640;;;;
2022/04/08 02:30:00;;;;;;;10.6;4.0;;;;;;;5.2;100.0;99640;;;;
2022/04/08 02:31:00;;;;;;;10.6;4.0;;;;;;;5.3;100.0;99640;;;;
2022/04/08 02:32:00;;;;;;;10.6;4.0;;;;;;;5.3;100.0;99640;;;;
2022/04/08 02:33:01;;;;;;;10.6;4.0;;;;;;;5.2;100.0;99640;;;;
2022/04/08 02:34:00;;;;;;;10.6;4.0;;;;;;;5.2;100.0;99640;;;;
2022/04/08 02:35:00;;;;;;;10.6;4.0;;;;;;;5.2;100.0;99640;;;;
2022/04/08 02:36:00;;;;;;;10.6;4.0;;;;;;;5.2;100.0;99640;;;;
2022/04/08 02:37:00;;;;;;;10.6;4.0;;;;;;;5.2;100.0;99640;;;;
2022/04/08 02:38:00;;;;;;;10.6;4.0;;;;;;;5.2;100.0;99640;;;;
2022/04/08 02:39:00;;;;;;;12.1;4.1;;;;;;;5.3;100.0;99650;;;;
2022/04/08 02:40:00;;;;;;;12.1;4.1;;;;;;;5.3;100.0;99650;;;;
2022/04/08 02:41:00;;;;;;;12.1;4.1;;;;;;;5.3;100.0;99650;;;;
2022/04/08 02:42:00;;;;;;;12.1;4.1;;;;;;;5.3;100.0;99650;;;;
2022/04/08 02:43:00;;;;;;;12.1;4.1;;;;;;;5.3;100.0;99650;;;;
2022/04/08 02:44:00;;;;;;;12.1;4.1;;;;;;;5.3;100.0;99650;;;;
2022/04/08 02:45:00;;;;;;;12.1;4.1;;;;;;;5.3;100.0;99650;;;;
2022/04/08 02:46:01;;;;;;;12.1;4.1;;;;;;;5.3;100.0;99650;;;;
2022/04/08 02:47:00;;;;;;;12.1;4.1;;;;;;;5.2;100.0;99650;;;;
2022/04/08 02:48:00;;;;;;;12.1;4.1;;;;;;;5.2;100.0;99650;;;;
2022/04/08 02:49:00;;;;;;;12.1;4.1;;;;;;;5.2;100.0;99650;;;;
2022/04/08 02:50:00;;;;;;;12.1;4.1;;;;;;;5.2;100.0;99650;;;;
2022/04/08 02:51:00;;;;;;;12.1;4.1;;;;;;;5.2;100.0;99640;;;;
2022/04/08 02:52:00;;;;;;;12.1;4.1;;;;;;;5.2;100.0;99640;;;;
2022/04/08 02:53:00;;;;;;;12.1;4.1;;;;;;;5.1;100.0;99640;;;;
2022/04/08 02:54:00;;;;;;;12.1;4.1;;;;;;;5.1;100.0;99640;;;;
2022/04/08 02:55:00;;;;;;;12.1;4.1;;;;;;;5.1;100.0;99650;;;;
2022/04/08 02:56:00;;;;;;;12.1;4.1;;;;;;;5.1;100.0;99650;;;;
2022/04/08 02:57:00;;;;;;;12.1;4.1;;;;;;;5.1;100.0;99650;;;;
2022/04/08 02:58:00;;;;;;;12.1;4.1;;;;;;;5.1;100.0;99650;;;;
2022/04/08 02:59:01;;;;;;;8.4;3.7;;;;;;;5.0;100.0;99650;;;;
2022/04/08 03:00:00;;;;;;;8.4;3.7;;;;;;;5.0;100.0;99650;;;;
2022/04/08 03:01:00;;;;;;;8.4;3.7;;;;;;;5.0;100.0;99660;;;;
2022/04/08 03:02:00;;;;;;;8.4;3.7;;;;;;;5.0;100.0;99660;;;;
2022/04/08 03:03:00;;;;;;;8.4;3.7;;;;;;;5.0;100.0;99660;;;;
2022/04/08 03:04:00;;;;;;;8.4;3.7;;;;;;;5.0;100.0;99660;;;;
2022/04/08 03:05:06;;;;;;;8.4;3.7;;;;;;;5.0;100.0;99660;;;;
2022/04/08 03:06:00;;;;;;;8.4;3.7;;;;;;;5.0;100.0;99660;;;;
2022/04/08 03:07:01;;;;;;;8.4;3.7;;;;;;;5.0;100.0;99660;;;;
2022/04/08 03:08:00;;;;;;;8.4;3.7;;;;;;;5.0;100.0;99660;;;;
2022/04/08 03:09:00;;;;;;;8.4;3.7;;;;;;;5.0;100.0;99660;;;;
2022/04/08 03:10:00;;;;;;;8.4;3.7;;;;;;;5.0;100.0;99660;;;;
2022/04/08 03:11:00;;;;;;;8.4;3.7;;;;;;;4.9;100.0;99660;;;;
2022/04/08 03:12:00;;;;;;;8.4;3.7;;;;;;;4.9;100.0;99660;;;;
2022/04/08 03:13:00;;;;;;;8.4;3.7;;;;;;;4.9;100.0;99660;;;;
2022/04/08 03:14:02;;;;;;;8.4;3.7;;;;;;;4.9;100.0;99660;;;;
2022/04/08 03:15:00;;;;;;;8.4;3.7;;;;;;;4.9;100.0;99670;;;;
2022/04/08 03:16:00;;;;;;;8.4;3.7;;;;;;;4.9;100.0;99670;;;;
2022/04/08 03:17:01;;;;;;;8.4;3.7;;;;;;;4.9;100.0;99660;;;;
2022/04/08 03:18:00;;;;;;;8.4;3.7;;;;;;;4.9;100.0;99660;;;;
2022/04/08 03:19:00;;;;;;;6.5;3.6;;;;;;;4.9;100.0;99670;;;;
2022/04/08 03:20:00;;;;;;;6.5;3.6;;;;;;;4.9;100.0;99670;;;;
2022/04/08 03:21:00;;;;;;;6.5;3.6;;;;;;;4.8;100.0;99670;;;;
2022/04/08 03:22:00;;;;;;;6.5;3.6;;;;;;;4.8;100.0;99670;;;;
2022/04/08 03:23:00;;;;;;;6.5;3.6;;;;;;;4.8;100.0;99670;;;;
2022/04/08 03:24:00;;;;;;;6.5;3.6;;;;;;;4.8;100.0;99670;;;;
2022/04/08 03:25:00;;;;;;;6.5;3.6;;;;;;;4.8;100.0;99670;;;;
2022/04/08 03:26:00;;;;;;;6.5;3.6;;;;;;;4.8;100.0;99670;;;;
2022/04/08 03:27:00;;;;;;;6.5;3.6;;;;;;;4.8;100.0;99680;;;;
2022/04/08 03:28:00;;;;;;;6.5;3.6;;;;;;;4.8;100.0;99680;;;;
2022/04/08 03:29:00;;;;;;;6.5;3.6;;;;;;;4.7;100.0;99680;;;;
2022/04/08 03:30:00;;;;;;;6.5;3.6;;;;;;;4.7;100.0;99680;;;;
2022/04/08 03:31:01;;;;;;;6.5;3.6;;;;;;;4.7;100.0;99680;;;;
2022/04/08 03:32:00;;;;;;;6.5;3.6;;;;;;;4.7;100.0;99680;;;;
2022/04/08 03:33:00;;;;;;;6.5;3.6;;;;;;;4.6;100.0;99690;;;;
2022/04/08 03:34:00;;;;;;;6.5;3.6;;;;;;;4.6;100.0;99690;;;;
2022/04/08 03:35:00;;;;;;;6.5;3.6;;;;;;;4.7;100.0;99690;;;;
2022/04/08 03:36:00;;;;;;;6.5;3.6;;;;;;;4.7;100.0;99690;;;;
2022/04/08 03:37:00;;;;;;;6.5;3.6;;;;;;;4.6;100.0;99690;;;;
2022/04/08 03:38:00;;;;;;;6.5;3.6;;;;;;;4.6;100.0;99690;;;;
2022/04/08 03:39:00;;;;;;;7.7;4.0;;;;;;;4.7;100.0;99700;;;;
2022/04/08 03:40:00;;;;;;;7.7;4.0;;;;;;;4.7;100.0;99700;;;;
2022/04/08 03:41:00;;;;;;;7.7;4.0;;;;;;;4.5;100.0;99700;;;;
2022/04/08 03:42:00;;;;;;;7.7;4.0;;;;;;;4.5;100.0;99700;;;;
2022/04/08 03:43:00;;;;;;;7.7;4.0;;;;;;;4.5;100.0;99700;;;;
2022/04/08 03:44:00;;;;;;;7.7;4.0;;;;;;;4.5;100.0;99700;;;;
2022/04/08 03:45:01;;;;;;;7.7;4.0;;;;;;;4.5;100.0;99700;;;;
2022/04/08 03:46:00;;;;;;;7.7;4.0;;;;;;;4.5;100.0;99700;;;;
2022/04/08 03:47:00;;;;;;;7.7;4.0;;;;;;;4.5;100.0;99700;;;;
2022/04/08 03:48:00;;;;;;;7.7;4.0;;;;;;;4.5;100.0;99700;;;;
2022/04/08 03:49:00;;;;;;;7.7;4.0;;;;;;;4.5;100.0;99710;;;;
2022/04/08 03:50:00;;;;;;;7.7;4.0;;;;;;;4.5;100.0;99710;;;;
2022/04/08 03:51:00;;;;;;;7.7;4.0;;;;;;;4.4;100.0;99710;;;;
2022/04/08 03:52:00;;;;;;;7.7;4.0;;;;;;;4.4;100.0;99710;;;;
2022/04/08 03:53:00;;;;;;;7.7;4.0;;;;;;;4.4;100.0;99710;;;;
2022/04/08 03:54:00;;;;;;;7.7;4.0;;;;;;;4.4;100.0;99710;;;;
2022/04/08 03:55:00;;;;;;;7.7;4.0;;;;;;;4.5;100.0;99710;;;;
2022/04/08 03:56:02;;;;;;;7.7;4.0;;;;;;;4.5;100.0;99710;;;;
2022/04/08 03:57:00;;;;;;;7.7;4.0;;;;;;;4.5;100.0;99710;;;;
2022/04/08 03:58:00;;;;;;;7.7;4.0;;;;;;;4.5;100.0;99710;;;;
2022/04/08 03:59:00;;;;;;;10.1;4.7;;;;;;;4.4;100.0;99710;;;;
2022/04/08 04:00:00;;;;;;;10.1;4.7;;;;;;;4.4;100.0;99710;;;;
2022/04/08 04:01:00;;;;;;;10.1;4.7;;;;;;;4.4;100.0;99710;;;;
2022/04/08 04:02:01;;;;;;;10.1;4.7;;;;;;;4.4;100.0;99710;;;;
2022/04/08 04:03:00;;;;;;;10.1;4.7;;;;;;;4.4;100.0;99710;;;;
2022/04/08 04:04:00;;;;;;;10.1;4.7;;;;;;;4.4;100.0;99710;;;;
2022/04/08 04:05:00;;;;;;;10.1;4.7;;;;;;;4.3;100.0;99710;;;;
2022/04/08 04:06:01;;;;;;;10.1;4.7;;;;;;;4.3;100.0;99710;;;;
2022/04/08 04:07:00;;;;;;;10.1;4.7;;;;;;;4.4;100.0;99720;;;;
2022/04/08 04:08:00;;;;;;;10.1;4.7;;;;;;;4.4;100.0;99720;;;;
2022/04/08 04:09:00;;;;;;;10.1;4.7;;;;;;;4.3;100.0;99720;;;;
2022/04/08 04:10:00;;;;;;;10.1;4.7;;;;;;;4.3;100.0;99720;;;;
2022/04/08 04:11:00;;;;;;;10.1;4.7;;;;;;;4.3;100.0;99710;;;;
2022/04/08 04:12:00;;;;;;;10.1;4.7;;;;;;;4.3;100.0;99710;;;;
2022/04/08 04:13:00;;;;;;;10.1;4.7;;;;;;;4.2;100.0;99710;;;;
2022/04/08 04:14:00;;;;;;;10.1;4.7;;;;;;;4.2;100.0;99710;;;;
2022/04/08 04:15:00;;;;;;;10.1;4.7;;;;;;;4.3;100.0;99710;;;;
2022/04/08 04:16:00;;;;;;;10.1;4.7;;;;;;;4.3;100.0;99710;;;;
2022/04/08 04:17:00;;;;;;;10.1;4.7;;;;;;;4.2;100.0;99710;;;;
2022/04/08 04:18:00;;;;;;;10.1;4.7;;;;;;;4.2;100.0;99710;;;;
2022/04/08 04:19:00;;;;;;;12.1;5.3;;;;;;;4.2;100.0;99710;;;;
2022/04/08 04:20:00;;;;;;;12.1;5.3;;;;;;;4.2;100.0;99710;;;;
2022/04/08 04:21:01;;;;;;;12.1;5.3;;;;;;;4.3;100.0;99710;;;;
2022/04/08 04:22:00;;;;;;;12.1;5.3;;;;;;;4.3;100.0;99710;;;;
2022/04/08 04:23:00;;;;;;;12.1;5.3;;;;;;;4.2;100.0;99710;;;;
2022/04/08 04:24:00;;;;;;;12.1;5.3;;;;;;;4.2;100.0;99710;;;;
2022/04/08 04:25:00;;;;;;;12.1;5.3;;;;;;;4.2;100.0;99710;;;;
2022/04/08 04:26:00;;;;;;;12.1;5.3;;;;;;;4.2;100.0;99710;;;;
2022/04/08 04:27:00;;;;;;;12.1;5.3;;;;;;;4.2;100.0;99710;;;;
2022/04/08 04:28:01;;;;;;;12.1;5.3;;;;;;;4.2;100.0;99710;;;;
2022/04/08 04:29:00;;;;;;;12.1;5.3;;;;;;;4.2;100.0;99710;;;;
2022/04/08 04:30:00;;;;;;;12.1;5.3;;;;;;;4.2;100.0;99710;;;;
2022/04/08 04:31:03;;;;;;;12.1;5.3;;;;;;;4.1;100.0;99710;;;;
2022/04/08 04:32:00;;;;;;;12.1;5.3;;;;;;;4.1;100.0;99710;;;;
2022/04/08 04:33:00;;;;;;;12.1;5.3;;;;;;;4.1;100.0;99700;;;;
2022/04/08 04:34:00;;;;;;;12.1;5.3;;;;;;;4.1;100.0;99700;;;;
2022/04/08 04:35:06;;;;;;;12.1;5.3;;;;;;;4.2;100.0;99700;;;;
2022/04/08 04:36:00;;;;;;;12.1;5.3;;;;;;;4.2;100.0;99700;;;;
2022/04/08 04:37:00;;;;;;;12.1;5.3;;;;;;;4.1;100.0;99700;;;;
2022/04/08 04:38:00;;;;;;;12.1;5.3;;;;;;;4.1;100.0;99700;;;;
2022/04/08 04:39:00;;;;;;;11.1;4.7;;;;;;;4.1;100.0;99710;;;;
2022/04/08 04:40:01;;;;;;;11.1;4.7;;;;;;;4.1;100.0;99710;;;;
2022/04/08 04:41:00;;;;;;;11.1;4.7;;;;;;;4.1;100.0;99710;;;;
2022/04/08 04:42:00;;;;;;;11.1;4.7;;;;;;;4.1;100.0;99710;;;;
2022/04/08 04:43:00;;;;;;;11.1;4.7;;;;;;;4.1;100.0;99710;;;;
2022/04/08 04:44:00;;;;;;;11.1;4.7;;;;;;;4.1;100.0;99710;;;;
2022/04/08 04:45:00;;;;;;;11.1;4.7;;;;;;;4.1;100.0;99710;;;;
2022/04/08 04:46:00;;;;;;;11.1;4.7;;;;;;;4.1;100.0;99710;;;;
2022/04/08 04:47:00;;;;;;;11.1;4.7;;;;;;;4.0;100.0;99710;;;;
2022/04/08 04:48:00;;;;;;;11.1;4.7;;;;;;;4.0;100.0;99710;;;;
2022/04/08 04:49:00;;;;;;;11.1;4.7;;;;;;;4.1;100.0;99710;;;;
2022/04/08 04:50:00;;;;;;;11.1;4.7;;;;;;;4.1;100.0;99710;;;;
2022/04/08 04:51:00;;;;;;;11.1;4.7;;;;;;;4.0;100.0;99710;;;;
2022/04/08 04:52:00;;;;;;;11.1;4.7;;;;;;;4.0;100.0;99710;;;;
2022/04/08 04:53:00;;;;;;;11.1;4.7;;;;;;;4.0;100.0;99710;;;;
2022/04/08 04:54:00;;;;;;;11.1;4.7;;;;;;;4.0;100.0;99710;;;;
2022/04/08 04:55:00;;;;;;;11.1;4.7;;;;;;;4.0;100.0;99710;;;;
2022/04/08 04:56:00;;;;;;;11.1;4.7;;;;;;;4.0;100.0;99710;;;;
2022/04/08 04:57:00;;;;;;;11.1;4.7;;;;;;;4.0;100.0;99710;;;;
2022/04/08 04:58:01;;;;;;;8.4;4.8;;;;;;;4.0;100.0;99710;;;;
2022/04/08 04:59:00;;;;;;;8.4;4.8;;;;;;;4.0;100.0;99710;;;;
2022/04/08 05:00:00;;;;;;;8.4;4.8;;;;;;;4.0;100.0;99710;;;;
2022/04/08 05:01:00;;;;;;;8.4;4.8;;;;;;;4.0;100.0;99710;;;;
2022/04/08 05:02:00;;;;;;;8.4;4.8;;;;;;;4.0;100.0;99710;;;;
2022/04/08 05:03:01;;;;;;;8.4;4.8;;;;;;;4.0;100.0;99720;;;;
2022/04/08 05:04:00;;;;;;;8.4;4.8;;;;;;;4.0;100.0;99720;;;;
2022/04/08 05:05:00;;;;;;;8.4;4.8;;;;;;;3.9;100.0;99710;;;;
2022/04/08 05:06:00;;;;;;;8.4;4.8;;;;;;;3.9;100.0;99710;;;;
2022/04/08 05:07:00;;;;;;;8.4;4.8;;;;;;;3.9;100.0;99720;;;;
2022/04/08 05:08:01;;;;;;;8.4;4.8;;;;;;;3.9;100.0;99720;;;;
2022/04/08 05:09:01;;;;;;;8.4;4.8;;;;;;;3.9;100.0;99720;;;;
2022/04/08 05:10:00;;;;;;;8.4;4.8;;;;;;;3.9;100.0;99720;;;;
2022/04/08 05:11:00;;;;;;;8.4;4.8;;;;;;;3.8;100.0;99720;;;;
2022/04/08 05:12:00;;;;;;;8.4;4.8;;;;;;;3.8;100.0;99720;;;;
2022/04/08 05:13:00;;;;;;;8.4;4.8;;;;;;;3.9;100.0;99720;;;;
2022/04/08 05:14:00;;;;;;;8.4;4.8;;;;;;;3.9;100.0;99720;;;;
2022/04/08 05:15:00;;;;;;;8.4;4.8;;;;;;;3.8;100.0;99720;;;;
2022/04/08 05:16:00;;;;;;;8.4;4.8;;;;;;;3.8;100.0;99720;;;;
2022/04/08 05:17:00;;;;;;;8.4;4.8;;;;;;;3.8;100.0;99720;;;;
2022/04/08 05:18:00;;;;;;;10.3;5.3;;;;;;;3.8;100.0;99720;;;;
2022/04/08 05:19:00;;;;;;;10.3;5.3;;;;;;;3.8;100.0;99720;;;;
2022/04/08 05:20:00;;;;;;;10.3;5.3;;;;;;;3.8;100.0;99720;;;;
2022/04/08 05:21:00;;;;;;;10.3;5.3;;;;;;;3.9;100.0;99720;;;;
2022/04/08 05:22:00;;;;;;;10.3;5.3;;;;;;;3.9;100.0;99720;;;;
2022/04/08 05:23:00;;;;;;;10.3;5.3;;;;;;;3.9;100.0;99730;;;;
2022/04/08 05:24:00;;;;;;;10.3;5.3;;;;;;;3.9;100.0;99730;;;;
2022/04/08 05:25:00;;;;;;;10.3;5.3;;;;;;;3.9;100.0;99730;;;;
2022/04/08 05:26:00;;;;;;;10.3;5.3;;;;;;;3.9;100.0;99730;;;;
2022/04/08 05:27:00;;;;;;;10.3;5.3;;;;;;;4.0;100.0;99720;;;;
2022/04/08 05:28:00;;;;;;;10.3;5.3;;;;;;;4.0;100.0;99720;;;;
2022/04/08 05:29:00;;;;;;;10.3;5.3;;;;;;;3.9;100.0;99720;;;;
2022/04/08 05:30:08;;;;;;;10.3;5.3;;;;;;;3.9;100.0;99720;;;;
2022/04/08 05:31:00;;;;;;;10.3;5.3;;;;;;;3.9;100.0;99720;;;;
2022/04/08 05:32:00;;;;;;;10.3;5.3;;;;;;;3.9;100.0;99720;;;;
2022/04/08 05:33:00;;;;;;;10.3;5.3;;;;;;;3.8;100.0;99720;;;;
2022/04/08 05:34:00;;;;;;;10.3;5.3;;;;;;;3.8;100.0;99720;;;;
2022/04/08 05:35:00;;;;;;;10.3;5.3;;;;;;;3.8;100.0;99720;;;;
2022/04/08 05:36:00;;;;;;;10.3;5.3;;;;;;;3.8;100.0;99720;;;;
2022/04/08 05:37:00;;;;;;;10.3;5.3;;;;;;;3.7;100.0;99710;;;;
2022/04/08 05:38:00;;;;;;;10.0;6.3;;;;;;;3.7;100.0;99710;;;;
2022/04/08 05:39:00;;;;;;;10.0;6.3;;;;;;;3.8;100.0;99710;;;;
2022/04/08 05:40:00;;;;;;;10.0;6.3;;;;;;;3.8;100.0;99710;;;;
2022/04/08 05:41:00;;;;;;;10.0;6.3;;;;;;;3.9;100.0;99710;;;;
2022/04/08 05:42:00;;;;;;;10.0;6.3;;;;;;;3.9;100.0;99710;;;;
2022/04/08 05:43:00;;;;;;;10.0;6.3;;;;;;;3.9;100.0;99710;;;;
2022/04/08 05:44:00;;;;;;;10.0;6.3;;;;;;;3.9;100.0;99710;;;;
2022/04/08 05:45:00;;;;;;;10.0;6.3;;;;;;;4.0;100.0;99700;;;;
2022/04/08 05:46:00;;;;;;;10.0;6.3;;;;;;;4.0;100.0;99700;;;;
2022/04/08 05:47:00;;;;;;;10.0;6.3;;;;;;;4.0;100.0;99700;;;;
2022/04/08 05:48:04;;;;;;;10.0;6.3;;;;;;;4.0;100.0;99700;;;;
2022/04/08 05:49:00;;;;;;;10.0;6.3;;;;;;;4.0;100.0;99700;;;;
2022/04/08 05:50:00;;;;;;;10.0;6.3;;;;;;;4.0;100.0;99700;;;;
2022/04/08 05:51:00;;;;;;;10.0;6.3;;;;;;;4.1;100.0;99700;;;;
2022/04/08 05:52:00;;;;;;;10.0;6.3;;;;;;;4.1;100.0;99700;;;;
2022/04/08 05:53:10;;;;;;;10.0;6.3;;;;;;;4.2;100.0;99700;;;;
2022/04/08 05:54:00;;;;;;;10.0;6.3;;;;;;;4.2;100.0;99700;;;;
2022/04/08 05:55:00;;;;;;;10.0;6.3;;;;;;;4.1;100.0;99700;;;;
2022/04/08 05:56:02;;;;;;;10.0;6.3;;;;;;;4.1;100.0;99700;;;;
2022/04/08 05:57:01;;;;;;;10.0;6.3;;;;;;;4.2;100.0;99700;;;;
2022/04/08 05:58:00;;;;;;;13.9;6.7;;;;;;;4.2;100.0;99700;;;;
2022/04/08 05:59:00;;;;;;;13.9;6.7;;;;;;;4.3;100.0;99690;;;;
2022/04/08 06:00:00;;;;;;;13.9;6.7;;;;;;;4.3;100.0;99690;;;;
2022/04/08 06:01:00;;;;;;;13.9;6.7;;;;;;;4.4;100.0;99680;;;;
2022/04/08 06:02:00;;;;;;;13.9;6.7;;;;;;;4.4;100.0;99680;;;;
2022/04/08 06:03:00;;;;;;;13.9;6.7;;;;;;;4.4;100.0;99680;;;;
2022/04/08 06:04:00;;;;;;;13.9;6.7;;;;;;;4.4;100.0;99680;;;;
2022/04/08 06:05:00;;;;;;;13.9;6.7;;;;;;;4.4;100.0;99680;;;;
2022/04/08 06:06:00;;;;;;;13.9;6.7;;;;;;;4.4;100.0;99680;;;;
2022/04/08 06:07:00;;;;;;;13.9;6.7;;;;;;;4.5;100.0;99670;;;;
2022/04/08 06:08:01;;;;;;;13.9;6.7;;;;;;;4.5;100.0;99670;;;;
2022/04/08 06:09:00;;;;;;;13.9;6.7;;;;;;;4.4;100.0;99670;;;;
2022/04/08 06:10:01;;;;;;;13.9;6.7;;;;;;;4.4;100.0;99670;;;;
2022/04/08 06:11:00;;;;;;;13.9;6.7;;;;;;;4.5;100.0;99670;;;;
2022/04/08 06:12:00;;;;;;;13.9;6.7;;;;;;;4.5;100.0;99670;;;;
2022/04/08 06:13:01;;;;;;;13.9;6.7;;;;;;;4.5;100.0;99670;;;;
2022/04/08 06:14:00;;;;;;;13.9;6.7;;;;;;;4.5;100.0;99670;;;;
2022/04/08 06:15:00;;;;;;;13.9;6.7;;;;;;;4.5;100.0;99680;;;;
2022/04/08 06:16:00;;;;;;;13.9;6.7;;;;;;;4.5;100.0;99680;;;;
2022/04/08 06:17:00;;;;;;;13.9;6.7;;;;;;;4.7;100.0;99680;;;;
2022/04/08 06:18:00;;;;;;;8.4;5.4;;;;;;;4.7;100.0;99680;;;;
2022/04/08 06:19:00;;;;;;;8.4;5.4;;;;;;;4.6;100.0;99680;;;;
2022/04/08 06:20:00;;;;;;;8.4;5.4;;;;;;;4.6;100.0;99680;;;;
2022/04/08 06:21:01;;;;;;;8.4;5.4;;;;;;;4.7;100.0;99680;;;;
2022/04/08 06:22:00;;;;;;;8.4;5.4;;;;;;;4.7;100.0;99680;;;;
2022/04/08 06:23:00;;;;;;;8.4;5.4;;;;;;;4.7;100.0;99680;;;;
2022/04/08 06:24:02;;;;;;;8.4;5.4;;;;;;;4.7;100.0;99680;;;;
2022/04/08 06:25:00;;;;;;;8.4;5.4;;;;;;;4.7;100.0;99680;;;;
2022/04/08 06:26:00;;;;;;;8.4;5.4;;;;;;;4.7;100.0;99680;;;;
2022/04/08 06:27:00;;;;;;;8.4;5.4;;;;;;;4.7;100.0;99680;;;;
2022/04/08 06:28:03;;;;;;;8.4;5.4;;;;;;;4.7;100.0;99680;;;;
2022/04/08 06:29:00;;;;;;;8.4;5.4;;;;;;;4.8;100.0;99680;;;;
2022/04/08 06:30:00;;;;;;;8.4;5.4;;;;;;;4.8;100.0;99680;;;;
2022/04/08 06:31:00;;;;;;;8.4;5.4;;;;;;;4.8;100.0;99690;;;;